Terminal Aerodrome Forecast
Issued by NWS Blacksburg, VA

Home | Current Version | Previous Version | Text Only | Print | Product List | Glossary On
Versions: 1 2 3 4 5 6 7 8 9 10 11 12 13 14 15 16 17 18 19 20 21 22 23 24 25 26 27 28 29 30
000
FTUS41 KRNK 241730
TAFROA
TAF
KROA 241730Z 2418/2518 VRB03KT P6SM VCTS BKN035CB
      TEMPO 2419/2421 2SM TSRA BR OVC030CB
     FM242300 34005KT P6SM BKN040
     FM250700 34003KT 5SM BR SCT060
     FM251400 04005KT P6SM BKN060=

USA.gov is the U.S. government's official web portal to all federal, state and local government web resources and services.